sensor_id;sensor_type;location;lat;lon;timestamp;temperature;humidity
21108;DHT22;10712;52.944;9.098;2023-04-06T00:02:16;1.90;75.30
21108;DHT22;10712;52.944;9.098;2023-04-06T00:04:42;1.90;75.60
21108;DHT22;10712;52.944;9.098;2023-04-06T00:07:07;1.80;75.90
21108;DHT22;10712;52.944;9.098;2023-04-06T00:09:33;1.80;75.00
21108;DHT22;10712;52.944;9.098;2023-04-06T00:11:59;1.70;75.40
21108;DHT22;10712;52.944;9.098;2023-04-06T00:14:25;1.60;75.50
21108;DHT22;10712;52.944;9.098;2023-04-06T00:16:51;1.60;76.00
21108;DHT22;10712;52.944;9.098;2023-04-06T00:19:17;1.60;76.20
21108;DHT22;10712;52.944;9.098;2023-04-06T00:21:44;1.60;76.40
21108;DHT22;10712;52.944;9.098;2023-04-06T00:24:10;1.50;76.00
21108;DHT22;10712;52.944;9.098;2023-04-06T00:26:35;1.50;76.50
21108;DHT22;10712;52.944;9.098;2023-04-06T00:29:01;1.50;76.40
21108;DHT22;10712;52.944;9.098;2023-04-06T00:31:28;1.40;76.40
21108;DHT22;10712;52.944;9.098;2023-04-06T00:33:54;1.40;76.60
21108;DHT22;10712;52.944;9.098;2023-04-06T00:36:20;1.40;76.70
21108;DHT22;10712;52.944;9.098;2023-04-06T00:38:45;1.40;76.80
21108;DHT22;10712;52.944;9.098;2023-04-06T00:41:11;1.40;76.70
21108;DHT22;10712;52.944;9.098;2023-04-06T00:43:37;1.40;76.70
21108;DHT22;10712;52.944;9.098;2023-04-06T00:46:03;1.40;76.70
21108;DHT22;10712;52.944;9.098;2023-04-06T00:48:29;1.30;76.30
21108;DHT22;10712;52.944;9.098;2023-04-06T00:50:57;1.20;76.20
21108;DHT22;10712;52.944;9.098;2023-04-06T00:53:23;1.10;76.40
21108;DHT22;10712;52.944;9.098;2023-04-06T00:55:51;1.00;77.10
21108;DHT22;10712;52.944;9.098;2023-04-06T00:58:17;1.00;77.60
21108;DHT22;10712;52.944;9.098;2023-04-06T01:00:48;0.90;77.60
21108;DHT22;10712;52.944;9.098;2023-04-06T01:03:17;0.90;77.60
21108;DHT22;10712;52.944;9.098;2023-04-06T01:05:43;0.80;77.90
21108;DHT22;10712;52.944;9.098;2023-04-06T01:08:20;0.70;78.20
21108;DHT22;10712;52.944;9.098;2023-04-06T01:10:47;0.70;78.70
21108;DHT22;10712;52.944;9.098;2023-04-06T01:13:22;0.70;79.20
21108;DHT22;10712;52.944;9.098;2023-04-06T01:15:53;0.70;79.80
21108;DHT22;10712;52.944;9.098;2023-04-06T01:18:38;0.80;79.80
21108;DHT22;10712;52.944;9.098;2023-04-06T01:21:15;0.80;79.50
21108;DHT22;10712;52.944;9.098;2023-04-06T01:23:53;0.80;79.20
21108;DHT22;10712;52.944;9.098;2023-04-06T01:26:26;0.80;79.20
21108;DHT22;10712;52.944;9.098;2023-04-06T01:28:52;0.80;79.30
21108;DHT22;10712;52.944;9.098;2023-04-06T01:31:25;0.80;79.30
21108;DHT22;10712;52.944;9.098;2023-04-06T01:33:52;0.90;79.30
21108;DHT22;10712;52.944;9.098;2023-04-06T01:36:21;0.90;78.90
21108;DHT22;10712;52.944;9.098;2023-04-06T01:38:54;0.80;78.80
21108;DHT22;10712;52.944;9.098;2023-04-06T01:41:28;0.80;78.80
21108;DHT22;10712;52.944;9.098;2023-04-06T01:43:54;0.70;78.60
21108;DHT22;10712;52.944;9.098;2023-04-06T01:46:23;0.60;78.60
21108;DHT22;10712;52.944;9.098;2023-04-06T01:48:50;0.60;79.10
21108;DHT22;10712;52.944;9.098;2023-04-06T01:51:34;0.60;79.40
21108;DHT22;10712;52.944;9.098;2023-04-06T01:54:03;0.60;79.30
21108;DHT22;10712;52.944;9.098;2023-04-06T01:57:07;0.50;78.90
21108;DHT22;10712;52.944;9.098;2023-04-06T01:59:40;0.40;79.00
21108;DHT22;10712;52.944;9.098;2023-04-06T02:02:13;0.30;79.30
21108;DHT22;10712;52.944;9.098;2023-04-06T02:04:50;0.30;79.50
21108;DHT22;10712;52.944;9.098;2023-04-06T02:07:16;0.20;79.80
21108;DHT22;10712;52.944;9.098;2023-04-06T02:09:41;0.20;79.90
21108;DHT22;10712;52.944;9.098;2023-04-06T02:12:13;0.20;79.80
21108;DHT22;10712;52.944;9.098;2023-04-06T02:14:39;0.20;79.80
21108;DHT22;10712;52.944;9.098;2023-04-06T02:17:05;0.10;79.90
21108;DHT22;10712;52.944;9.098;2023-04-06T02:19:31;0.10;80.10
21108;DHT22;10712;52.944;9.098;2023-04-06T02:21:57;0.10;80.20
21108;DHT22;10712;52.944;9.098;2023-04-06T02:24:23;0.10;80.50
21108;DHT22;10712;52.944;9.098;2023-04-06T02:26:49;0.10;81.00
21108;DHT22;10712;52.944;9.098;2023-04-06T02:29:15;0.10;81.10
21108;DHT22;10712;52.944;9.098;2023-04-06T02:31:41;0.10;81.10
21108;DHT22;10712;52.944;9.098;2023-04-06T02:34:08;0.20;81.00
21108;DHT22;10712;52.944;9.098;2023-04-06T02:36:37;0.20;81.00
21108;DHT22;10712;52.944;9.098;2023-04-06T02:39:03;0.20;80.80
21108;DHT22;10712;52.944;9.098;2023-04-06T02:41:29;0.30;80.50
21108;DHT22;10712;52.944;9.098;2023-04-06T02:43:57;0.30;80.40
21108;DHT22;10712;52.944;9.098;2023-04-06T02:46:34;0.30;80.20
21108;DHT22;10712;52.944;9.098;2023-04-06T02:49:02;0.40;80.00
21108;DHT22;10712;52.944;9.098;2023-04-06T02:51:30;0.40;79.90
21108;DHT22;10712;52.944;9.098;2023-04-06T02:54:06;0.50;79.60
21108;DHT22;10712;52.944;9.098;2023-04-06T02:56:32;0.60;79.30
21108;DHT22;10712;52.944;9.098;2023-04-06T02:58:58;0.70;78.70
21108;DHT22;10712;52.944;9.098;2023-04-06T03:01:27;0.70;78.20
21108;DHT22;10712;52.944;9.098;2023-04-06T03:03:58;0.80;77.70
21108;DHT22;10712;52.944;9.098;2023-04-06T03:06:26;0.80;77.40
21108;DHT22;10712;52.944;9.098;2023-04-06T03:08:56;0.90;77.20
21108;DHT22;10712;52.944;9.098;2023-04-06T03:11:22;0.90;76.90
21108;DHT22;10712;52.944;9.098;2023-04-06T03:13:50;1.00;76.50
21108;DHT22;10712;52.944;9.098;2023-04-06T03:16:16;1.00;76.30
21108;DHT22;10712;52.944;9.098;2023-04-06T03:18:42;1.00;76.00
21108;DHT22;10712;52.944;9.098;2023-04-06T03:21:12;1.00;75.60
21108;DHT22;10712;52.944;9.098;2023-04-06T03:23:45;1.10;75.30
21108;DHT22;10712;52.944;9.098;2023-04-06T03:26:11;1.00;74.80
21108;DHT22;10712;52.944;9.098;2023-04-06T03:28:37;1.00;74.30
21108;DHT22;10712;52.944;9.098;2023-04-06T03:31:05;0.90;74.30
21108;DHT22;10712;52.944;9.098;2023-04-06T03:33:57;0.80;74.50
21108;DHT22;10712;52.944;9.098;2023-04-06T03:36:31;0.80;74.80
21108;DHT22;10712;52.944;9.098;2023-04-06T03:38:58;0.70;75.10
21108;DHT22;10712;52.944;9.098;2023-04-06T03:41:24;0.60;75.20
21108;DHT22;10712;52.944;9.098;2023-04-06T03:43:57;0.60;75.70
21108;DHT22;10712;52.944;9.098;2023-04-06T03:46:23;0.60;75.60
21108;DHT22;10712;52.944;9.098;2023-04-06T03:48:52;0.60;75.50
21108;DHT22;10712;52.944;9.098;2023-04-06T03:51:20;0.60;75.60
21108;DHT22;10712;52.944;9.098;2023-04-06T03:53:47;0.60;75.70
21108;DHT22;10712;52.944;9.098;2023-04-06T03:56:13;0.70;75.60
21108;DHT22;10712;52.944;9.098;2023-04-06T03:58:38;0.70;75.60
21108;DHT22;10712;52.944;9.098;2023-04-06T04:01:04;0.70;75.40
21108;DHT22;10712;52.944;9.098;2023-04-06T04:03:30;0.80;75.20
21108;DHT22;10712;52.944;9.098;2023-04-06T04:05:56;0.80;75.00
21108;DHT22;10712;52.944;9.098;2023-04-06T04:08:24;0.80;74.90
21108;DHT22;10712;52.944;9.098;2023-04-06T04:10:50;0.80;74.80
21108;DHT22;10712;52.944;9.098;2023-04-06T04:13:16;0.80;74.70
21108;DHT22;10712;52.944;9.098;2023-04-06T04:15:45;0.80;74.70
21108;DHT22;10712;52.944;9.098;2023-04-06T04:18:13;0.80;74.60
21108;DHT22;10712;52.944;9.098;2023-04-06T04:20:39;0.80;74.50
21108;DHT22;10712;52.944;9.098;2023-04-06T04:23:05;0.80;74.50
21108;DHT22;10712;52.944;9.098;2023-04-06T04:25:33;0.80;74.50
21108;DHT22;10712;52.944;9.098;2023-04-06T04:27:58;0.80;74.50
21108;DHT22;10712;52.944;9.098;2023-04-06T04:30:24;0.80;74.40
21108;DHT22;10712;52.944;9.098;2023-04-06T04:32:50;0.80;74.30
21108;DHT22;10712;52.944;9.098;2023-04-06T04:35:19;0.80;74.20
21108;DHT22;10712;52.944;9.098;2023-04-06T04:37:45;0.80;74.00
21108;DHT22;10712;52.944;9.098;2023-04-06T04:40:11;0.80;74.10
21108;DHT22;10712;52.944;9.098;2023-04-06T04:42:49;0.80;74.10
21108;DHT22;10712;52.944;9.098;2023-04-06T04:45:23;0.80;74.20
21108;DHT22;10712;52.944;9.098;2023-04-06T04:47:50;0.80;74.30
21108;DHT22;10712;52.944;9.098;2023-04-06T04:50:17;0.80;74.30
21108;DHT22;10712;52.944;9.098;2023-04-06T04:52:45;0.80;74.30
21108;DHT22;10712;52.944;9.098;2023-04-06T04:55:19;0.80;74.20
21108;DHT22;10712;52.944;9.098;2023-04-06T04:57:47;0.80;74.30
21108;DHT22;10712;52.944;9.098;2023-04-06T05:00:15;0.80;74.10
21108;DHT22;10712;52.944;9.098;2023-04-06T05:02:43;0.80;74.30
21108;DHT22;10712;52.944;9.098;2023-04-06T05:05:15;0.80;74.30
21108;DHT22;10712;52.944;9.098;2023-04-06T05:07:42;0.80;74.50
21108;DHT22;10712;52.944;9.098;2023-04-06T05:10:14;0.80;74.50
21108;DHT22;10712;52.944;9.098;2023-04-06T05:12:49;0.80;74.50
21108;DHT22;10712;52.944;9.098;2023-04-06T05:15:15;0.80;74.50
21108;DHT22;10712;52.944;9.098;2023-04-06T05:17:41;0.80;74.60
21108;DHT22;10712;52.944;9.098;2023-04-06T05:20:10;0.80;74.60
21108;DHT22;10712;52.944;9.098;2023-04-06T05:22:44;0.80;74.60
21108;DHT22;10712;52.944;9.098;2023-04-06T05:25:10;0.80;74.60
21108;DHT22;10712;52.944;9.098;2023-04-06T05:27:37;0.80;74.60
21108;DHT22;10712;52.944;9.098;2023-04-06T05:30:09;0.80;74.80
21108;DHT22;10712;52.944;9.098;2023-04-06T05:32:40;0.80;74.80
21108;DHT22;10712;52.944;9.098;2023-04-06T05:35:08;0.80;75.00
21108;DHT22;10712;52.944;9.098;2023-04-06T05:37:34;0.80;75.20
21108;DHT22;10712;52.944;9.098;2023-04-06T05:40:00;0.80;75.30
21108;DHT22;10712;52.944;9.098;2023-04-06T05:42:26;0.80;75.20
21108;DHT22;10712;52.944;9.098;2023-04-06T05:44:56;0.80;75.30
21108;DHT22;10712;52.944;9.098;2023-04-06T05:47:22;0.80;75.50
21108;DHT22;10712;52.944;9.098;2023-04-06T05:49:54;0.80;75.50
21108;DHT22;10712;52.944;9.098;2023-04-06T05:52:29;0.80;75.70
21108;DHT22;10712;52.944;9.098;2023-04-06T05:54:55;0.80;75.70
21108;DHT22;10712;52.944;9.098;2023-04-06T05:57:23;0.90;75.70
21108;DHT22;10712;52.944;9.098;2023-04-06T05:59:49;0.90;75.60
21108;DHT22;10712;52.944;9.098;2023-04-06T06:02:15;0.90;75.60
21108;DHT22;10712;52.944;9.098;2023-04-06T06:04:45;1.00;75.50
21108;DHT22;10712;52.944;9.098;2023-04-06T06:07:12;1.00;75.50
21108;DHT22;10712;52.944;9.098;2023-04-06T06:09:43;1.10;75.10
21108;DHT22;10712;52.944;9.098;2023-04-06T06:12:19;1.10;75.00
21108;DHT22;10712;52.944;9.098;2023-04-06T06:14:47;1.20;74.90
21108;DHT22;10712;52.944;9.098;2023-04-06T06:17:13;1.20;75.00
21108;DHT22;10712;52.944;9.098;2023-04-06T06:19:41;1.30;74.80
21108;DHT22;10712;52.944;9.098;2023-04-06T06:22:07;1.30;74.80
21108;DHT22;10712;52.944;9.098;2023-04-06T06:24:36;1.40;74.80
21108;DHT22;10712;52.944;9.098;2023-04-06T06:27:03;1.40;74.80
21108;DHT22;10712;52.944;9.098;2023-04-06T06:29:31;1.50;74.60
21108;DHT22;10712;52.944;9.098;2023-04-06T06:31:58;1.60;74.50
21108;DHT22;10712;52.944;9.098;2023-04-06T06:34:24;1.70;73.90
21108;DHT22;10712;52.944;9.098;2023-04-06T06:36:51;1.70;73.50
21108;DHT22;10712;52.944;9.098;2023-04-06T06:39:20;1.80;73.20
21108;DHT22;10712;52.944;9.098;2023-04-06T06:41:48;1.90;72.70
21108;DHT22;10712;52.944;9.098;2023-04-06T06:44:13;2.00;72.40
21108;DHT22;10712;52.944;9.098;2023-04-06T06:46:39;2.10;72.30
21108;DHT22;10712;52.944;9.098;2023-04-06T06:49:05;2.20;72.00
21108;DHT22;10712;52.944;9.098;2023-04-06T06:51:31;2.20;72.00
21108;DHT22;10712;52.944;9.098;2023-04-06T06:53:57;2.30;71.80
21108;DHT22;10712;52.944;9.098;2023-04-06T06:56:23;2.30;71.90
21108;DHT22;10712;52.944;9.098;2023-04-06T06:58:50;2.40;72.00
21108;DHT22;10712;52.944;9.098;2023-04-06T07:01:16;2.50;71.80
21108;DHT22;10712;52.944;9.098;2023-04-06T07:03:42;2.60;71.10
21108;DHT22;10712;52.944;9.098;2023-04-06T07:06:09;2.60;71.10
21108;DHT22;10712;52.944;9.098;2023-04-06T07:08:35;2.70;70.70
21108;DHT22;10712;52.944;9.098;2023-04-06T07:11:02;2.80;70.70
21108;DHT22;10712;52.944;9.098;2023-04-06T07:13:28;2.80;70.80
21108;DHT22;10712;52.944;9.098;2023-04-06T07:15:57;2.80;70.70
21108;DHT22;10712;52.944;9.098;2023-04-06T07:18:23;2.90;71.00
21108;DHT22;10712;52.944;9.098;2023-04-06T07:20:49;2.90;71.10
21108;DHT22;10712;52.944;9.098;2023-04-06T07:23:16;3.00;71.20
21108;DHT22;10712;52.944;9.098;2023-04-06T07:25:41;3.10;71.20
21108;DHT22;10712;52.944;9.098;2023-04-06T07:28:09;3.10;71.30
21108;DHT22;10712;52.944;9.098;2023-04-06T07:30:37;3.20;71.40
21108;DHT22;10712;52.944;9.098;2023-04-06T07:33:03;3.30;71.30
21108;DHT22;10712;52.944;9.098;2023-04-06T07:35:31;3.40;71.20
21108;DHT22;10712;52.944;9.098;2023-04-06T07:37:57;3.40;71.20
21108;DHT22;10712;52.944;9.098;2023-04-06T07:40:23;3.50;71.20
21108;DHT22;10712;52.944;9.098;2023-04-06T07:42:50;3.60;71.20
21108;DHT22;10712;52.944;9.098;2023-04-06T07:45:16;3.60;71.10
21108;DHT22;10712;52.944;9.098;2023-04-06T07:47:43;3.70;70.80
21108;DHT22;10712;52.944;9.098;2023-04-06T07:50:09;3.80;70.60
21108;DHT22;10712;52.944;9.098;2023-04-06T07:52:36;3.90;71.10
21108;DHT22;10712;52.944;9.098;2023-04-06T07:55:02;4.00;69.80
21108;DHT22;10712;52.944;9.098;2023-04-06T07:57:28;4.10;69.00
21108;DHT22;10712;52.944;9.098;2023-04-06T07:59:54;4.20;68.40
21108;DHT22;10712;52.944;9.098;2023-04-06T08:02:20;4.20;68.00
21108;DHT22;10712;52.944;9.098;2023-04-06T08:04:46;4.30;67.90
21108;DHT22;10712;52.944;9.098;2023-04-06T08:07:11;4.40;67.60
21108;DHT22;10712;52.944;9.098;2023-04-06T08:09:37;4.50;67.70
21108;DHT22;10712;52.944;9.098;2023-04-06T08:12:03;4.60;67.90
21108;DHT22;10712;52.944;9.098;2023-04-06T08:14:29;4.70;68.10
21108;DHT22;10712;52.944;9.098;2023-04-06T08:16:55;4.80;68.40
21108;DHT22;10712;52.944;9.098;2023-04-06T08:19:21;4.90;68.40
21108;DHT22;10712;52.944;9.098;2023-04-06T08:21:47;5.10;68.10
21108;DHT22;10712;52.944;9.098;2023-04-06T08:24:13;5.20;67.80
21108;DHT22;10712;52.944;9.098;2023-04-06T08:26:40;5.30;67.30
21108;DHT22;10712;52.944;9.098;2023-04-06T08:29:06;5.50;66.70
21108;DHT22;10712;52.944;9.098;2023-04-06T08:31:35;5.60;66.00
21108;DHT22;10712;52.944;9.098;2023-04-06T08:34:03;5.70;65.80
21108;DHT22;10712;52.944;9.098;2023-04-06T08:36:30;5.80;65.30
21108;DHT22;10712;52.944;9.098;2023-04-06T08:38:57;5.90;65.50
21108;DHT22;10712;52.944;9.098;2023-04-06T08:41:22;6.00;65.40
21108;DHT22;10712;52.944;9.098;2023-04-06T08:43:50;6.10;65.00
21108;DHT22;10712;52.944;9.098;2023-04-06T08:46:23;6.20;64.90
21108;DHT22;10712;52.944;9.098;2023-04-06T08:49:00;6.30;64.30
21108;DHT22;10712;52.944;9.098;2023-04-06T08:51:29;6.50;64.30
21108;DHT22;10712;52.944;9.098;2023-04-06T08:53:57;6.60;64.60
21108;DHT22;10712;52.944;9.098;2023-04-06T08:56:27;6.80;63.90
21108;DHT22;10712;52.944;9.098;2023-04-06T08:58:54;6.90;63.60
21108;DHT22;10712;52.944;9.098;2023-04-06T09:01:27;7.10;62.40
21108;DHT22;10712;52.944;9.098;2023-04-06T09:03:57;7.20;62.60
21108;DHT22;10712;52.944;9.098;2023-04-06T09:06:25;7.20;63.10
21108;DHT22;10712;52.944;9.098;2023-04-06T09:08:56;7.30;63.50
21108;DHT22;10712;52.944;9.098;2023-04-06T09:11:23;7.50;62.00
21108;DHT22;10712;52.944;9.098;2023-04-06T09:16:17;7.80;60.40
21108;DHT22;10712;52.944;9.098;2023-04-06T09:18:44;7.80;60.80
21108;DHT22;10712;52.944;9.098;2023-04-06T09:21:10;7.90;61.10
21108;DHT22;10712;52.944;9.098;2023-04-06T09:23:37;8.00;59.90
21108;DHT22;10712;52.944;9.098;2023-04-06T09:26:14;8.10;60.00
21108;DHT22;10712;52.944;9.098;2023-04-06T09:28:48;8.30;60.20
21108;DHT22;10712;52.944;9.098;2023-04-06T09:31:23;8.40;58.50
21108;DHT22;10712;52.944;9.098;2023-04-06T09:33:51;8.50;58.80
21108;DHT22;10712;52.944;9.098;2023-04-06T09:36:17;8.60;58.70
21108;DHT22;10712;52.944;9.098;2023-04-06T09:38:56;8.80;58.00
21108;DHT22;10712;52.944;9.098;2023-04-06T09:41:23;8.90;57.60
21108;DHT22;10712;52.944;9.098;2023-04-06T09:44:05;9.00;57.20
21108;DHT22;10712;52.944;9.098;2023-04-06T09:46:37;9.10;57.90
21108;DHT22;10712;52.944;9.098;2023-04-06T09:49:04;9.10;57.70
21108;DHT22;10712;52.944;9.098;2023-04-06T09:51:36;9.20;57.50
21108;DHT22;10712;52.944;9.098;2023-04-06T09:54:04;9.30;57.80
21108;DHT22;10712;52.944;9.098;2023-04-06T09:56:46;9.40;57.90
21108;DHT22;10712;52.944;9.098;2023-04-06T09:59:53;9.50;57.00
21108;DHT22;10712;52.944;9.098;2023-04-06T10:08:11;9.90;56.30
21108;DHT22;10712;52.944;9.098;2023-04-06T10:10:39;10.00;56.00
21108;DHT22;10712;52.944;9.098;2023-04-06T10:13:05;10.10;54.90
21108;DHT22;10712;52.944;9.098;2023-04-06T10:15:33;10.20;55.00
21108;DHT22;10712;52.944;9.098;2023-04-06T10:17:59;10.30;55.30
21108;DHT22;10712;52.944;9.098;2023-04-06T10:20:38;10.40;55.20
21108;DHT22;10712;52.944;9.098;2023-04-06T10:26:17;10.50;54.60
21108;DHT22;10712;52.944;9.098;2023-04-06T10:28:46;10.60;55.90
21108;DHT22;10712;52.944;9.098;2023-04-06T10:31:13;10.70;55.30
21108;DHT22;10712;52.944;9.098;2023-04-06T10:33:40;10.80;53.80
21108;DHT22;10712;52.944;9.098;2023-04-06T10:36:21;10.90;53.10
21108;DHT22;10712;52.944;9.098;2023-04-06T10:38:57;11.00;53.30
21108;DHT22;10712;52.944;9.098;2023-04-06T10:41:32;11.10;54.00
21108;DHT22;10712;52.944;9.098;2023-04-06T10:44:06;11.20;53.10
21108;DHT22;10712;52.944;9.098;2023-04-06T10:46:33;11.30;52.50
21108;DHT22;10712;52.944;9.098;2023-04-06T10:49:12;11.40;52.50
21108;DHT22;10712;52.944;9.098;2023-04-06T10:51:38;11.50;52.50
21108;DHT22;10712;52.944;9.098;2023-04-06T10:54:06;11.60;51.60
21108;DHT22;10712;52.944;9.098;2023-04-06T10:56:33;11.70;50.50
21108;DHT22;10712;52.944;9.098;2023-04-06T10:59:02;11.80;51.00
21108;DHT22;10712;52.944;9.098;2023-04-06T11:01:28;11.80;50.80
21108;DHT22;10712;52.944;9.098;2023-04-06T11:03:56;11.90;50.40
21108;DHT22;10712;52.944;9.098;2023-04-06T11:06:26;12.00;51.20
21108;DHT22;10712;52.944;9.098;2023-04-06T11:08:55;12.00;50.50
21108;DHT22;10712;52.944;9.098;2023-04-06T11:11:23;12.10;50.60
21108;DHT22;10712;52.944;9.098;2023-04-06T11:13:56;12.30;49.80
21108;DHT22;10712;52.944;9.098;2023-04-06T11:16:30;12.30;49.90
21108;DHT22;10712;52.944;9.098;2023-04-06T11:18:59;12.40;49.60
21108;DHT22;10712;52.944;9.098;2023-04-06T11:21:34;12.40;50.20
21108;DHT22;10712;52.944;9.098;2023-04-06T11:26:46;12.50;49.90
21108;DHT22;10712;52.944;9.098;2023-04-06T11:29:23;12.60;49.30
21108;DHT22;10712;52.944;9.098;2023-04-06T11:31:52;12.70;48.50
21108;DHT22;10712;52.944;9.098;2023-04-06T11:34:23;12.80;49.20
21108;DHT22;10712;52.944;9.098;2023-04-06T11:36:55;12.80;48.70
21108;DHT22;10712;52.944;9.098;2023-04-06T11:39:26;12.90;48.30
21108;DHT22;10712;52.944;9.098;2023-04-06T11:41:56;12.90;48.90
21108;DHT22;10712;52.944;9.098;2023-04-06T11:44:39;12.90;48.00
21108;DHT22;10712;52.944;9.098;2023-04-06T11:47:11;13.00;46.80
21108;DHT22;10712;52.944;9.098;2023-04-06T11:49:44;13.00;47.90
21108;DHT22;10712;52.944;9.098;2023-04-06T11:52:22;13.00;49.10
21108;DHT22;10712;52.944;9.098;2023-04-06T11:54:51;13.10;47.40
21108;DHT22;10712;52.944;9.098;2023-04-06T11:57:20;13.10;46.70
21108;DHT22;10712;52.944;9.098;2023-04-06T11:59:49;13.10;46.70
21108;DHT22;10712;52.944;9.098;2023-04-06T12:02:15;13.10;46.70
21108;DHT22;10712;52.944;9.098;2023-04-06T12:04:43;13.10;46.60
21108;DHT22;10712;52.944;9.098;2023-04-06T12:07:09;13.10;47.00
21108;DHT22;10712;52.944;9.098;2023-04-06T12:09:35;13.20;46.70
21108;DHT22;10712;52.944;9.098;2023-04-06T12:12:03;13.20;45.40
21108;DHT22;10712;52.944;9.098;2023-04-06T12:14:29;13.30;46.20
21108;DHT22;10712;52.944;9.098;2023-04-06T12:16:58;13.30;46.20
21108;DHT22;10712;52.944;9.098;2023-04-06T12:19:24;13.40;46.10
21108;DHT22;10712;52.944;9.098;2023-04-06T12:21:52;13.40;45.90
21108;DHT22;10712;52.944;9.098;2023-04-06T12:24:19;13.50;47.10
21108;DHT22;10712;52.944;9.098;2023-04-06T12:26:46;13.60;45.90
21108;DHT22;10712;52.944;9.098;2023-04-06T12:29:12;13.60;45.40
21108;DHT22;10712;52.944;9.098;2023-04-06T12:31:39;13.60;45.20
21108;DHT22;10712;52.944;9.098;2023-04-06T12:34:06;13.60;44.30
21108;DHT22;10712;52.944;9.098;2023-04-06T12:36:33;13.60;43.70
21108;DHT22;10712;52.944;9.098;2023-04-06T12:38:59;13.60;44.20
21108;DHT22;10712;52.944;9.098;2023-04-06T12:41:29;13.60;43.80
21108;DHT22;10712;52.944;9.098;2023-04-06T12:43:55;13.70;41.90
21108;DHT22;10712;52.944;9.098;2023-04-06T12:46:22;13.70;41.80
21108;DHT22;10712;52.944;9.098;2023-04-06T12:48:48;13.70;42.60
21108;DHT22;10712;52.944;9.098;2023-04-06T12:51:14;13.70;42.90
21108;DHT22;10712;52.944;9.098;2023-04-06T12:53:41;13.70;42.00
21108;DHT22;10712;52.944;9.098;2023-04-06T12:56:14;13.80;41.90
21108;DHT22;10712;52.944;9.098;2023-04-06T12:58:41;13.80;43.20
21108;DHT22;10712;52.944;9.098;2023-04-06T13:01:08;13.80;43.30
21108;DHT22;10712;52.944;9.098;2023-04-06T13:03:34;13.80;43.10
21108;DHT22;10712;52.944;9.098;2023-04-06T13:06:01;13.90;43.20
21108;DHT22;10712;52.944;9.098;2023-04-06T13:08:27;14.00;41.80
21108;DHT22;10712;52.944;9.098;2023-04-06T13:10:53;14.00;43.30
21108;DHT22;10712;52.944;9.098;2023-04-06T13:13:27;14.00;43.10
21108;DHT22;10712;52.944;9.098;2023-04-06T13:15:58;14.00;42.90
21108;DHT22;10712;52.944;9.098;2023-04-06T13:18:29;14.00;42.80
21108;DHT22;10712;52.944;9.098;2023-04-06T13:20:57;14.00;43.50
21108;DHT22;10712;52.944;9.098;2023-04-06T13:23:23;14.10;43.80
21108;DHT22;10712;52.944;9.098;2023-04-06T13:26:00;14.10;44.30
21108;DHT22;10712;52.944;9.098;2023-04-06T13:28:28;14.10;43.50
21108;DHT22;10712;52.944;9.098;2023-04-06T13:30:57;14.20;43.10
21108;DHT22;10712;52.944;9.098;2023-04-06T13:33:24;14.20;42.80
21108;DHT22;10712;52.944;9.098;2023-04-06T13:35:50;14.20;43.50
21108;DHT22;10712;52.944;9.098;2023-04-06T13:38:15;14.20;42.60
21108;DHT22;10712;52.944;9.098;2023-04-06T13:40:42;14.20;43.00
21108;DHT22;10712;52.944;9.098;2023-04-06T13:43:08;14.30;42.30
21108;DHT22;10712;52.944;9.098;2023-04-06T13:45:34;14.30;41.50
21108;DHT22;10712;52.944;9.098;2023-04-06T13:47:59;14.30;41.70
21108;DHT22;10712;52.944;9.098;2023-04-06T13:50:26;14.30;42.40
21108;DHT22;10712;52.944;9.098;2023-04-06T13:52:53;14.20;43.20
21108;DHT22;10712;52.944;9.098;2023-04-06T13:55:18;14.30;43.40
21108;DHT22;10712;52.944;9.098;2023-04-06T13:57:44;14.30;43.30
21108;DHT22;10712;52.944;9.098;2023-04-06T14:00:10;14.40;43.70
21108;DHT22;10712;52.944;9.098;2023-04-06T14:02:39;14.40;44.00
21108;DHT22;10712;52.944;9.098;2023-04-06T14:05:05;14.40;43.10
21108;DHT22;10712;52.944;9.098;2023-04-06T14:07:31;14.50;43.60
21108;DHT22;10712;52.944;9.098;2023-04-06T14:09:57;14.50;42.80
21108;DHT22;10712;52.944;9.098;2023-04-06T14:12:23;14.50;41.50
21108;DHT22;10712;52.944;9.098;2023-04-06T14:14:48;14.50;42.30
21108;DHT22;10712;52.944;9.098;2023-04-06T14:17:15;14.50;43.50
21108;DHT22;10712;52.944;9.098;2023-04-06T14:19:41;14.50;42.50
21108;DHT22;10712;52.944;9.098;2023-04-06T14:22:07;14.50;42.10
21108;DHT22;10712;52.944;9.098;2023-04-06T14:24:34;14.40;42.30
21108;DHT22;10712;52.944;9.098;2023-04-06T14:27:01;14.40;42.20
21108;DHT22;10712;52.944;9.098;2023-04-06T14:29:27;14.40;42.80
21108;DHT22;10712;52.944;9.098;2023-04-06T14:31:53;14.40;41.30
21108;DHT22;10712;52.944;9.098;2023-04-06T14:34:25;14.40;41.40
21108;DHT22;10712;52.944;9.098;2023-04-06T14:36:52;14.30;41.50
21108;DHT22;10712;52.944;9.098;2023-04-06T14:39:18;14.30;42.50
21108;DHT22;10712;52.944;9.098;2023-04-06T14:41:44;14.40;41.60
21108;DHT22;10712;52.944;9.098;2023-04-06T14:44:10;14.40;41.30
21108;DHT22;10712;52.944;9.098;2023-04-06T14:46:37;14.40;42.00
21108;DHT22;10712;52.944;9.098;2023-04-06T14:49:03;14.40;42.40
21108;DHT22;10712;52.944;9.098;2023-04-06T14:51:29;14.40;43.00
21108;DHT22;10712;52.944;9.098;2023-04-06T14:53:56;14.50;42.60
21108;DHT22;10712;52.944;9.098;2023-04-06T14:56:23;14.50;42.30
21108;DHT22;10712;52.944;9.098;2023-04-06T14:58:50;14.50;42.40
21108;DHT22;10712;52.944;9.098;2023-04-06T15:01:18;14.50;40.90
21108;DHT22;10712;52.944;9.098;2023-04-06T15:03:44;14.50;41.90
21108;DHT22;10712;52.944;9.098;2023-04-06T15:06:14;14.50;42.10
21108;DHT22;10712;52.944;9.098;2023-04-06T15:08:44;14.40;41.70
21108;DHT22;10712;52.944;9.098;2023-04-06T15:11:11;14.40;42.20
21108;DHT22;10712;52.944;9.098;2023-04-06T15:13:40;14.40;42.70
21108;DHT22;10712;52.944;9.098;2023-04-06T15:16:07;14.40;42.10
21108;DHT22;10712;52.944;9.098;2023-04-06T15:18:34;14.40;42.10
21108;DHT22;10712;52.944;9.098;2023-04-06T15:21:01;14.40;42.90
21108;DHT22;10712;52.944;9.098;2023-04-06T15:23:27;14.40;43.40
21108;DHT22;10712;52.944;9.098;2023-04-06T15:25:58;14.40;43.10
21108;DHT22;10712;52.944;9.098;2023-04-06T15:28:24;14.30;43.00
21108;DHT22;10712;52.944;9.098;2023-04-06T15:30:49;14.30;43.20
21108;DHT22;10712;52.944;9.098;2023-04-06T15:33:15;14.30;43.40
21108;DHT22;10712;52.944;9.098;2023-04-06T15:35:41;14.20;43.50
21108;DHT22;10712;52.944;9.098;2023-04-06T15:38:10;14.20;43.80
21108;DHT22;10712;52.944;9.098;2023-04-06T15:40:43;14.10;43.60
21108;DHT22;10712;52.944;9.098;2023-04-06T15:43:11;14.10;43.50
21108;DHT22;10712;52.944;9.098;2023-04-06T15:45:37;14.10;43.70
21108;DHT22;10712;52.944;9.098;2023-04-06T15:48:02;14.10;43.60
21108;DHT22;10712;52.944;9.098;2023-04-06T15:50:28;14.10;43.50
21108;DHT22;10712;52.944;9.098;2023-04-06T15:52:54;14.00;43.20
21108;DHT22;10712;52.944;9.098;2023-04-06T15:55:23;14.00;43.20
21108;DHT22;10712;52.944;9.098;2023-04-06T15:57:49;13.90;43.60
21108;DHT22;10712;52.944;9.098;2023-04-06T16:00:15;13.90;43.80
21108;DHT22;10712;52.944;9.098;2023-04-06T16:02:41;13.80;44.00